Time;durP1;ratioP1;P1;durP2;ratioP2;P2;SDS_P1;SDS_P2;PMS_P1;PMS_P2;Temp;Humidity;BMP_temperature;BMP_pressure;BME280_temperature;BME280_humidity;BME280_pressure;Samples;Min_cycle;Max_cycle;Signal;HPM_P1;HPM_P2
2022/05/23 00:00:18;;;;;;;5.43;2.47;;;13.20;99.90;;;-141.84;60.79;18484.91;5074644;28;20197;-51
2022/05/23 00:02:47;;;;;;;3.33;2.40;;;13.20;99.90;;;-141.84;61.57;18493.03;5074567;28;20660;-54
2022/05/23 00:05:15;;;;;;;4.53;2.50;;;13.20;99.90;;;-141.84;61.84;18442.25;5074678;28;20289;-52
2022/05/23 00:07:47;;;;;;;4.07;2.63;;;13.10;99.90;;;-141.84;61.36;18488.97;5074649;28;20288;-50
2022/05/23 00:10:22;;;;;;;3.23;2.40;;;13.20;99.90;;;-141.84;61.06;18484.91;5074577;28;20177;-50
2022/05/23 00:12:50;;;;;;;3.20;2.53;;;13.20;99.90;;;-141.84;61.74;18448.34;5074626;28;20279;-57
2022/05/23 00:15:19;;;;;;;3.37;2.53;;;13.10;99.90;;;-141.84;61.74;18466.63;5073894;28;20210;-54
2022/05/23 00:17:47;;;;;;;3.00;2.70;;;13.10;99.90;;;-141.84;61.29;18484.91;5073949;28;20204;-52
2022/05/23 00:20:19;;;;;;;3.23;2.53;;;13.10;99.90;;;-141.84;62.47;18476.78;5073969;28;20692;-52
2022/05/23 00:22:47;;;;;;;3.87;2.80;;;13.10;99.90;;;-141.84;62.02;18466.63;5074363;28;20209;-54
2022/05/23 00:25:16;;;;;;;2.83;2.50;;;13.10;99.90;;;-141.84;61.93;18470.69;5074298;28;20193;-53
2022/05/23 00:27:46;;;;;;;3.03;2.53;;;13.10;99.90;;;-141.84;62.28;18446.31;5074338;28;20291;-55
2022/05/23 00:30:24;;;;;;;2.73;2.43;;;13.10;99.90;;;-141.84;62.29;18448.34;5073822;28;20668;-53
2022/05/23 00:35:41;;;;;;;4.27;3.00;;;13.00;99.90;;;-141.84;63.05;18417.84;5073838;28;20185;-53
2022/05/23 00:38:09;;;;;;;4.07;2.70;;;12.90;99.90;;;-141.84;63.32;18419.88;5073664;28;20209;-53
2022/05/23 00:40:48;;;;;;;3.97;2.80;;;12.80;99.90;;;-141.84;63.37;18415.81;5073868;28;20208;-52
2022/05/23 00:43:22;;;;;;;3.77;2.90;;;12.80;99.90;;;-141.84;64.11;18399.56;5073874;28;20740;-53
2022/05/23 00:45:53;;;;;;;3.77;2.80;;;12.80;99.90;;;-141.84;64.19;18389.41;5073463;28;20576;-54
2022/05/23 00:48:24;;;;;;;3.10;2.80;;;12.70;99.90;;;-141.84;64.14;18419.88;5073953;28;20550;-52
2022/05/23 00:50:58;;;;;;;2.90;2.50;;;12.70;99.90;;;-141.84;64.83;18393.47;5053823;28;20182;-55
2022/05/23 00:53:35;;;;;;;3.43;3.13;;;12.60;99.90;;;-141.84;64.35;18391.44;5073654;28;20185;-54
2022/05/23 00:56:08;;;;;;;3.77;2.60;;;12.60;99.90;;;-141.84;65.18;18379.25;5073762;28;20180;-54
2022/05/23 00:58:43;;;;;;;2.90;2.60;;;12.60;99.90;;;-141.84;65.35;18375.19;5073757;28;20239;-53
2022/05/23 01:01:15;;;;;;;3.30;3.00;;;12.50;99.90;;;-141.84;65.52;18365.03;5073303;28;20279;-55
2022/05/23 01:03:43;;;;;;;3.87;2.80;;;12.50;99.90;;;-141.84;65.65;18393.47;5073214;28;20188;-52
2022/05/23 01:06:11;;;;;;;3.80;2.70;;;12.50;99.90;;;-141.84;65.70;18363.00;5073506;28;20197;-53
2022/05/23 01:08:42;;;;;;;3.37;3.07;;;12.50;99.90;;;-141.84;66.31;18350.81;5072868;28;20783;-53
2022/05/23 01:11:11;;;;;;;3.27;2.40;;;12.50;99.90;;;-141.84;65.93;18373.16;5073223;28;20223;-53
2022/05/23 01:13:41;;;;;;;3.07;2.60;;;12.40;99.90;;;-141.84;65.80;18387.38;5073242;28;20219;-54
2022/05/23 01:16:09;;;;;;;3.40;3.03;;;12.50;99.90;;;-141.84;65.93;18365.03;5073134;28;20203;-52
2022/05/23 01:18:37;;;;;;;3.47;2.67;;;12.50;99.90;;;-141.84;66.61;18334.56;5073159;28;20204;-53
2022/05/23 01:21:13;;;;;;;4.47;3.10;;;12.40;99.90;;;-141.84;67.39;18326.44;5073139;28;20283;-55
2022/05/23 01:23:51;;;;;;;4.53;3.00;;;12.40;99.90;;;-141.84;67.74;18318.31;5072997;28;20284;-54
2022/05/23 01:26:20;;;;;;;2.90;2.60;;;12.30;99.90;;;-141.84;68.14;18322.38;5073252;28;20181;-54
2022/05/23 01:28:50;;;;;;;4.97;2.90;;;12.30;99.90;;;-141.84;68.18;18322.38;5073300;28;20227;-55
2022/05/23 01:31:19;;;;;;;3.23;2.80;;;12.30;99.90;;;-141.84;68.18;18310.19;5073002;28;20193;-56
2022/05/23 01:33:47;;;;;;;3.00;2.70;;;12.30;99.90;;;-141.84;67.78;18320.34;5073180;28;20201;-55
2022/05/23 01:36:16;;;;;;;4.20;2.90;;;12.30;99.90;;;-141.84;66.54;18360.97;5072929;28;20234;-54
2022/05/23 01:38:44;;;;;;;4.30;3.20;;;12.40;99.90;;;-141.84;67.16;18340.66;5072872;28;20292;-52
2022/05/23 01:41:12;;;;;;;5.33;3.20;;;12.30;99.90;;;-141.84;67.94;18318.31;5072758;28;20220;-53
2022/05/23 01:43:41;;;;;;;3.57;3.00;;;12.30;99.90;;;-141.84;68.26;18273.63;5072848;28;20744;-56
2022/05/23 01:46:10;;;;;;;5.20;3.50;;;12.30;99.90;;;-141.84;67.71;18316.28;5072295;28;20609;-55
2022/05/23 01:48:38;;;;;;;3.57;3.03;;;12.20;99.90;;;-141.84;68.26;18336.59;5072680;28;20211;-53
2022/05/23 01:51:06;;;;;;;3.67;3.20;;;12.20;99.90;;;-141.84;68.38;18320.34;5072697;28;20340;-55
2022/05/23 01:53:34;;;;;;;3.40;3.10;;;12.20;99.90;;;-141.84;68.36;18302.06;5072457;28;20564;-54
2022/05/23 01:56:04;;;;;;;3.33;3.00;;;12.20;99.90;;;-141.84;68.94;18324.41;5072577;28;20299;-53
2022/05/23 02:01:20;;;;;;;3.63;2.90;;;12.20;99.90;;;-141.84;69.28;18310.19;5072229;28;20273;-53
2022/05/23 02:03:49;;;;;;;3.10;2.80;;;12.10;99.90;;;-141.84;69.15;18300.03;5073037;28;20203;-54
2022/05/23 02:06:18;;;;;;;3.30;3.00;;;12.10;99.90;;;-141.84;69.76;18310.19;5072215;28;20204;-55
2022/05/23 02:08:46;;;;;;;4.40;3.47;;;12.10;99.90;;;-141.84;69.94;18283.78;5072128;28;20204;-52
2022/05/23 02:11:15;;;;;;;3.87;3.40;;;12.00;99.90;;;-141.84;70.67;18245.19;5072426;28;20246;-55
2022/05/23 02:13:46;;;;;;;3.80;3.13;;;12.00;99.90;;;-141.84;70.17;18271.59;5072485;28;20201;-54
2022/05/23 02:16:14;;;;;;;3.53;3.17;;;12.00;99.90;;;-141.84;70.40;18255.34;5072088;28;20227;-54
2022/05/23 02:18:43;;;;;;;4.40;3.20;;;12.00;99.90;;;-141.84;70.80;18245.19;5072186;28;20212;-54
2022/05/23 02:21:11;;;;;;;5.27;3.60;;;11.90;99.90;;;-141.84;70.82;18251.28;5072206;28;20238;-56
2022/05/23 02:23:39;;;;;;;6.67;3.40;;;11.90;99.90;;;-141.84;71.08;18253.31;5072105;28;20295;-53
2022/05/23 02:26:07;;;;;;;4.40;3.20;;;11.90;99.90;;;-141.84;70.49;18241.13;5072080;28;20236;-55
2022/05/23 02:28:35;;;;;;;4.97;3.50;;;11.90;99.90;;;-141.84;70.76;18261.44;5072199;28;20196;-53
2022/05/23 02:31:03;;;;;;;3.33;3.03;;;11.90;99.90;;;-141.84;70.84;18269.56;5072004;28;20196;-53
2022/05/23 02:33:31;;;;;;;3.87;3.37;;;11.90;99.90;;;-141.84;70.92;18245.19;5072048;28;20203;-53
2022/05/23 02:36:00;;;;;;;3.43;3.13;;;11.80;99.90;;;-141.84;71.44;18235.00;5072066;28;20232;-55
2022/05/23 02:38:28;;;;;;;4.50;3.40;;;11.80;99.90;;;-141.84;71.20;18261.44;5071687;28;20231;-56
2022/05/23 02:40:56;;;;;;;3.23;3.03;;;11.80;99.90;;;-141.84;70.62;18269.56;5071536;28;20672;-54
2022/05/23 02:43:27;;;;;;;4.23;3.57;;;11.80;99.90;;;-141.84;71.22;18232.97;5071977;28;20295;-51
2022/05/23 02:45:55;;;;;;;4.80;3.33;;;11.80;99.90;;;-141.84;70.27;18289.88;5071767;28;20716;-54
2022/05/23 02:48:23;;;;;;;4.83;3.33;;;11.80;99.90;;;-141.84;71.71;18228.91;5072087;28;20201;-53
2022/05/23 02:50:51;;;;;;;3.97;3.50;;;11.80;99.90;;;-141.84;72.06;18235.00;5071891;28;20322;-51
2022/05/23 02:53:21;;;;;;;3.87;3.47;;;11.80;99.90;;;-141.84;72.72;18224.84;5071876;28;20307;-53
2022/05/23 02:55:49;;;;;;;5.90;3.97;;;11.70;99.90;;;-141.84;72.94;18184.22;5074192;28;20207;-54
2022/05/23 02:58:17;;;;;;;3.63;3.33;;;11.70;99.90;;;-141.84;72.98;18239.09;5075945;28;20197;-53
2022/05/23 03:00:45;;;;;;;5.13;3.60;;;11.70;99.90;;;-141.84;72.67;18220.78;5075347;28;20713;-51
2022/05/23 03:03:12;;;;;;;6.90;3.70;;;11.70;99.90;;;-141.84;73.41;18190.31;5075754;28;20196;-54
2022/05/23 03:05:45;;;;;;;4.03;3.63;;;11.60;99.90;;;-141.84;73.54;18196.41;5075206;28;20756;-53
2022/05/23 03:08:16;;;;;;;5.13;3.43;;;11.60;99.90;;;-141.84;73.16;18194.38;5075845;28;20177;-52
2022/05/23 03:10:47;;;;;;;5.30;4.10;;;11.60;99.90;;;-141.84;72.82;18220.78;5075307;28;20181;-49
2022/05/23 03:13:15;;;;;;;4.17;3.60;;;11.70;99.90;;;-141.84;72.86;18186.25;5075648;28;20280;-51
2022/05/23 03:15:43;;;;;;;6.20;4.17;;;11.70;99.90;;;-141.84;73.08;18190.31;5075363;28;20236;-54
2022/05/23 03:18:11;;;;;;;4.47;3.60;;;11.70;99.90;;;-141.84;72.71;18176.09;5075404;28;20236;-52
2022/05/23 03:20:39;;;;;;;5.73;4.10;;;11.70;99.90;;;-141.84;72.56;18167.97;5075188;28;20228;-51
2022/05/23 03:28:45;;;;;;;4.90;3.83;;;11.70;99.90;;;-141.84;72.87;18206.56;5075322;28;20185;-50
2022/05/23 03:31:13;;;;;;;4.17;3.33;;;11.70;99.90;;;-141.84;72.87;18186.25;5075081;28;20223;-53
2022/05/23 03:33:41;;;;;;;4.47;3.67;;;11.70;99.90;;;-141.84;72.99;18192.34;5075142;28;20205;-55
2022/05/23 03:36:10;;;;;;;4.63;3.80;;;11.70;99.90;;;-141.84;72.50;18184.22;5075094;28;20219;-55
2022/05/23 03:38:37;;;;;;;4.30;3.77;;;11.70;99.90;;;-141.84;72.53;18176.09;5074952;28;20201;-53
2022/05/23 03:41:09;;;;;;;4.87;4.37;;;11.70;99.90;;;-141.84;72.49;18202.50;5074611;28;20216;-53
2022/05/23 03:43:38;;;;;;;4.77;4.03;;;11.60;99.90;;;-141.84;72.56;18212.66;5075047;28;20187;-56
2022/05/23 03:46:08;;;;;;;6.53;4.90;;;11.70;99.90;;;-141.84;71.63;18196.41;5074348;28;20296;-53
2022/05/23 03:48:37;;;;;;;7.07;4.53;;;11.70;99.90;;;-141.84;71.75;18206.56;5074579;28;20205;-55
2022/05/23 03:51:06;;;;;;;5.17;4.73;;;11.70;99.90;;;-141.84;71.67;18200.47;5074895;28;20193;-55
2022/05/23 03:53:35;;;;;;;5.13;4.57;;;11.80;99.90;;;-141.84;71.21;18210.63;5074537;28;20228;-54
2022/05/23 03:56:04;;;;;;;7.33;4.60;;;11.80;99.90;;;-141.84;70.97;18235.00;5074713;28;20287;-52
2022/05/23 03:58:34;;;;;;;5.23;4.73;;;11.90;99.90;;;-141.84;70.75;18216.72;5074823;28;20224;-54
2022/05/23 04:01:11;;;;;;;5.57;4.33;;;12.00;99.90;;;-141.84;70.04;18232.97;5074241;28;20230;-54
2022/05/23 04:03:39;;;;;;;5.93;4.33;;;12.00;99.90;;;-141.84;69.61;18279.72;5074474;28;20564;-53
2022/05/23 04:06:08;;;;;;;4.43;4.07;;;12.10;99.90;;;-141.84;69.22;18249.25;5073649;28;20207;-54
2022/05/23 04:08:37;;;;;;;4.80;4.17;;;12.10;99.90;;;-141.84;69.19;18249.25;5073967;28;20765;-54
2022/05/23 04:11:05;;;;;;;4.90;4.17;;;12.30;99.90;;;-141.84;68.76;18285.81;5074262;28;20201;-55
2022/05/23 04:13:36;;;;;;;5.60;4.27;;;12.40;99.90;;;-141.84;68.05;18261.44;5074197;28;20205;-56
2022/05/23 04:16:05;;;;;;;5.03;4.23;;;12.50;99.90;;;-141.84;66.35;18314.25;5073819;28;20598;-52
2022/05/23 04:18:36;;;;;;;4.57;3.70;;;12.80;99.90;;;-141.84;64.81;18336.59;5074056;28;20740;-54
2022/05/23 04:21:05;;;;;;;5.87;4.00;;;13.00;99.90;;;-141.84;64.06;18381.28;5074161;28;20201;-53
2022/05/23 04:23:33;;;;;;;3.97;3.57;;;13.20;99.90;;;-141.84;62.33;18407.69;5073804;28;20527;-52
2022/05/23 04:26:06;;;;;;;4.93;3.90;;;13.40;99.90;;;-141.84;61.10;18428.03;5074190;28;20212;-54
2022/05/23 04:28:39;;;;;;;4.73;3.80;;;13.50;99.90;;;-141.84;61.43;18452.41;5074038;28;20625;-55
2022/05/23 04:31:07;;;;;;;4.40;3.67;;;13.60;99.90;;;-141.84;60.67;18440.22;5074145;28;20223;-56
2022/05/23 04:36:21;;;;;;;5.03;3.70;;;13.80;99.90;;;-141.84;60.02;18452.41;5074010;28;20189;-53
2022/05/23 04:38:49;;;;;;;4.20;3.57;;;13.90;99.90;;;-141.84;59.89;18474.75;5073678;28;20678;-51
2022/05/23 04:41:17;;;;;;;5.97;3.53;;;13.90;99.90;;;-141.84;60.68;18474.75;5073709;28;20750;-53
2022/05/23 04:43:47;;;;;;;3.73;3.40;;;13.90;99.90;;;-141.84;60.77;18450.38;5074016;28;20196;-54
2022/05/23 04:46:15;;;;;;;4.07;3.63;;;13.90;99.90;;;-141.84;60.30;18472.72;5073510;28;20239;-53
2022/05/23 04:51:28;;;;;;;4.97;3.67;;;14.00;99.90;;;-141.84;59.84;18466.63;5073371;28;20203;-54
2022/05/23 04:53:57;;;;;;;4.43;3.90;;;14.10;99.90;;;-141.84;56.42;18629.16;5072916;28;20200;-54
2022/05/23 04:56:29;;;;;;;4.37;3.40;;;14.70;99.90;;;-141.84;54.24;18704.31;5073352;28;20204;-55
2022/05/23 04:58:58;;;;;;;3.85;3.42;;;15.30;99.90;;;-141.84;50.81;18822.19;5073164;28;20216;-53
2022/05/23 05:01:27;;;;;;;4.10;3.25;;;16.20;99.90;;;-141.84;45.55;19088.34;5073030;28;20220;-52
2022/05/23 05:03:57;;;;;;;3.92;3.50;;;17.40;99.90;;;-141.84;41.90;19330.16;5073138;28;20295;-51
2022/05/23 05:06:26;;;;;;;4.07;3.15;;;18.70;99.90;;;-141.84;40.52;19500.88;5072826;28;20215;-54
2022/05/23 05:08:54;;;;;;;3.20;2.90;;;19.60;99.90;;;-141.84;38.63;19614.66;5072666;28;20682;-53
2022/05/23 05:11:22;;;;;;;4.93;3.08;;;20.20;99.90;;;-141.84;39.06;19533.38;5073239;28;20207;-51
2022/05/23 05:13:50;;;;;;;4.22;3.42;;;20.10;99.90;;;-141.84;40.48;19448.03;5072438;28;20227;-54
2022/05/23 05:16:23;;;;;;;4.90;3.30;;;19.70;99.90;;;-141.84;41.67;19360.66;5072367;28;20200;-53
2022/05/23 05:18:56;;;;;;;3.97;3.17;;;19.30;99.90;;;-141.84;42.59;19269.22;5071953;28;20291;-52
2022/05/23 05:21:24;;;;;;;6.55;3.38;;;18.90;99.90;;;-141.84;42.39;19293.59;5072262;28;20229;-55
2022/05/23 05:23:52;;;;;;;6.38;3.30;;;18.70;99.90;;;-141.84;42.08;19277.34;5071961;28;20672;-50
2022/05/23 05:26:20;;;;;;;5.13;3.47;;;18.70;99.90;;;-141.84;42.44;19301.72;5072327;28;20200;-51
2022/05/23 05:28:48;;;;;;;3.70;3.40;;;18.70;99.90;;;-141.84;43.21;19293.59;5072316;28;20661;-54
2022/05/23 05:31:29;;;;;;;5.32;3.25;;;18.60;99.90;;;-141.84;43.61;19216.38;5072042;28;20212;-54
2022/05/23 05:34:05;;;;;;;5.25;3.15;;;18.60;99.90;;;-141.84;44.31;19214.34;5072222;28;20213;-55
2022/05/23 05:36:40;;;;;;;5.30;3.17;;;18.40;99.90;;;-141.84;45.09;19153.38;5071951;28;20188;-52
2022/05/23 05:39:09;;;;;;;4.40;2.97;;;18.10;99.90;;;-141.84;45.30;19118.84;5071711;28;20717;-51
2022/05/23 05:41:45;;;;;;;3.42;3.13;;;17.80;99.90;;;-141.84;46.16;19061.94;5072214;28;20311;-52
2022/05/23 05:44:21;;;;;;;4.35;2.60;;;17.50;99.90;;;-141.84;47.03;18990.81;5071766;28;20655;-51
2022/05/23 05:46:57;;;;;;;3.42;2.88;;;17.40;99.90;;;-141.84;47.58;18988.78;5071883;28;20281;-52
2022/05/23 05:49:49;;;;;;;3.25;2.95;;;17.20;99.90;;;-141.84;47.69;18976.59;5071564;28;20208;-52
2022/05/23 05:52:21;;;;;;;4.50;3.00;;;17.00;99.90;;;-141.84;48.44;18984.72;5071644;28;20544;-53
2022/05/23 05:54:50;;;;;;;6.90;3.33;;;16.80;99.90;;;-141.84;48.15;18954.25;5071614;28;20189;-52
2022/05/23 05:57:18;;;;;;;4.57;2.90;;;16.80;99.90;;;-141.84;48.13;18962.38;5071886;28;20294;-54
2022/05/23 05:59:46;;;;;;;3.95;2.60;;;16.70;99.90;;;-141.84;48.81;18954.25;5071475;28;20204;-54
2022/05/23 06:02:16;;;;;;;5.07;3.00;;;16.70;99.90;;;-141.84;48.57;18944.09;5071609;28;20228;-52
2022/05/23 06:04:45;;;;;;;3.60;2.80;;;16.80;99.90;;;-141.84;48.50;18927.84;5071850;28;20201;-55
2022/05/23 06:12:56;;;;;;;4.60;2.75;;;16.90;99.90;;;-141.84;49.36;18940.03;5070054;28;20693;-55
2022/05/23 06:15:24;;;;;;;3.33;3.03;;;17.00;99.90;;;-141.84;48.69;18970.50;5070899;28;20208;-55
2022/05/23 06:17:53;;;;;;;5.13;3.80;;;17.10;99.90;;;-141.84;48.03;19033.50;5071150;28;20205;-54
2022/05/23 06:20:23;;;;;;;3.72;2.97;;;17.20;99.90;;;-141.84;47.47;19019.28;5071185;28;20216;-53
2022/05/23 06:22:51;;;;;;;2.78;2.50;;;17.30;99.90;;;-141.84;46.61;19080.22;5071272;28;20256;-48
2022/05/23 06:25:20;;;;;;;3.65;2.70;;;17.60;99.90;;;-141.84;46.66;19072.09;5070926;28;20902;-52
2022/05/23 06:27:48;;;;;;;2.83;2.63;;;17.80;99.90;;;-141.84;45.54;19141.19;5071075;28;20664;-52
2022/05/23 06:30:18;;;;;;;4.63;2.95;;;18.10;99.90;;;-141.84;45.52;19145.25;5072885;28;20207;-54
2022/05/23 06:32:47;;;;;;;4.22;2.88;;;18.20;99.90;;;-141.84;45.33;19098.50;5075298;28;20187;-53
2022/05/23 06:35:17;;;;;;;6.32;3.13;;;18.40;99.90;;;-141.84;44.99;19153.38;5075321;28;20223;-53
2022/05/23 06:37:45;;;;;;;4.68;2.92;;;18.30;99.90;;;-141.84;45.61;19104.59;5075183;28;20571;-52
2022/05/23 06:40:16;;;;;;;6.10;3.38;;;18.30;99.90;;;-141.84;45.34;19135.09;5074949;28;20208;-52
2022/05/23 06:42:45;;;;;;;3.70;3.10;;;18.20;99.90;;;-141.84;45.35;19106.66;5074747;28;20562;-50
2022/05/23 06:45:13;;;;;;;5.20;3.25;;;18.20;99.90;;;-141.84;46.19;19118.84;5074740;28;20672;-55
2022/05/23 06:47:42;;;;;;;3.70;3.05;;;18.10;99.90;;;-141.84;46.15;19114.78;5074918;28;20564;-52
2022/05/23 06:50:11;;;;;;;4.88;2.95;;;18.20;99.90;;;-141.84;45.58;19116.81;5074935;28;20227;-53
2022/05/23 06:52:40;;;;;;;4.35;2.80;;;18.20;99.90;;;-141.84;46.05;19070.06;5074654;28;20200;-53
2022/05/23 06:55:09;;;;;;;4.97;2.78;;;18.30;99.90;;;-141.84;45.02;19153.38;5074567;28;20210;-53
2022/05/23 06:57:38;;;;;;;4.63;3.03;;;18.30;99.90;;;-141.84;45.46;19129.00;5074006;28;20648;-54
2022/05/23 07:00:09;;;;;;;3.83;2.70;;;18.40;99.90;;;-141.84;46.18;19139.16;5074786;28;20200;-55
2022/05/23 07:02:38;;;;;;;5.22;3.00;;;18.30;99.90;;;-141.84;46.16;19100.53;5074539;28;20750;-54
2022/05/23 07:13:28;;;;;;;12.20;2.90;;;18.90;99.90;;;-141.84;45.06;19244.81;5074587;28;20224;-55
2022/05/23 07:15:58;;;;;;;5.70;2.88;;;19.00;99.90;;;-141.84;44.16;19232.63;5074357;28;20200;-54
2022/05/23 07:18:27;;;;;;;4.40;2.58;;;19.20;99.90;;;-141.84;44.73;19267.16;5074049;28;20268;-53
2022/05/23 07:20:55;;;;;;;4.53;2.60;;;19.30;99.90;;;-141.84;43.95;19234.66;5054545;28;20288;-53
2022/05/23 07:23:24;;;;;;;3.83;2.42;;;19.20;99.90;;;-141.84;44.07;19269.22;5053931;28;20217;-54
2022/05/23 07:25:52;;;;;;;3.85;2.63;;;19.30;99.90;;;-141.84;44.65;19252.94;5054071;28;20251;-52
2022/05/23 07:28:20;;;;;;;3.90;2.53;;;19.30;99.90;;;-141.84;44.45;19246.84;5054448;28;20295;-52
2022/05/23 07:30:49;;;;;;;2.40;2.20;;;19.40;99.90;;;-141.84;43.92;19254.97;5053790;28;20237;-52
2022/05/23 07:33:16;;;;;;;5.15;2.50;;;19.50;99.90;;;-141.84;43.64;19283.44;5053813;28;20542;-54
2022/05/23 07:35:45;;;;;;;4.47;2.45;;;19.60;99.90;;;-141.84;43.74;19242.78;5053910;28;20217;-50
2022/05/23 07:38:12;;;;;;;6.68;2.60;;;19.60;99.90;;;-141.84;43.64;19305.78;5053745;28;20280;-53
2022/05/23 07:40:42;;;;;;;2.88;2.38;;;19.80;99.90;;;-141.84;42.56;19366.75;5051668;28;20213;-50
2022/05/23 07:43:09;;;;;;;4.93;2.45;;;20.00;99.90;;;-141.84;43.69;19330.16;5052564;28;20228;-53
2022/05/23 07:45:37;;;;;;;5.13;2.80;;;20.10;99.90;;;-141.84;42.97;19356.59;5053650;28;20293;-52
2022/05/23 07:48:06;;;;;;;4.80;2.85;;;20.10;99.90;;;-141.84;42.85;19354.56;5053883;28;20561;-54
2022/05/23 07:50:35;;;;;;;2.58;2.30;;;20.20;99.90;;;-141.84;42.44;19378.94;5072567;28;20423;-55
2022/05/23 08:01:20;;;;;;;3.20;2.58;;;20.20;99.90;;;-141.84;42.82;19338.28;5074246;28;20195;-52
2022/05/23 08:03:48;;;;;;;2.85;2.30;;;20.20;99.90;;;-141.84;43.28;19330.16;5074420;28;20221;-55
2022/05/23 08:06:17;;;;;;;4.70;2.97;;;20.00;99.90;;;-141.84;43.61;19362.69;5074671;28;20204;-54
2022/05/23 08:08:45;;;;;;;4.60;2.65;;;20.00;99.90;;;-141.84;43.33;19301.72;5074312;28;20238;-54
2022/05/23 08:11:14;;;;;;;5.10;2.67;;;20.00;99.90;;;-141.84;43.45;19336.25;5074065;28;20200;-54
2022/05/23 08:13:48;;;;;;;4.85;2.72;;;20.00;99.90;;;-141.84;43.49;19305.78;5073968;28;20244;-52
2022/05/23 08:16:16;;;;;;;5.13;3.20;;;20.00;99.90;;;-141.84;44.17;19297.66;5068728;28;20196;-56
2022/05/23 08:18:45;;;;;;;3.45;2.80;;;20.00;99.90;;;-141.84;43.28;19364.72;5066900;28;20200;-55
2022/05/23 08:21:15;;;;;;;4.18;2.60;;;20.20;99.90;;;-141.84;42.87;19415.50;5068897;28;20565;-52
2022/05/23 08:23:44;;;;;;;4.45;2.40;;;20.40;99.90;;;-141.84;42.97;19360.66;5072330;28;20544;-52
2022/05/23 08:26:14;;;;;;;3.53;2.33;;;20.40;99.90;;;-141.84;43.06;19370.81;5072481;28;20208;-53
2022/05/23 08:28:42;;;;;;;2.92;2.25;;;20.40;99.90;;;-141.84;42.86;19401.28;5072964;28;20207;-50
2022/05/23 08:31:10;;;;;;;4.68;2.28;;;20.50;99.90;;;-141.84;42.44;19399.25;5072763;28;20197;-52
2022/05/23 08:33:38;;;;;;;4.22;2.53;;;20.60;99.90;;;-141.84;43.18;19391.13;5072808;28;20193;-52
2022/05/23 08:36:06;;;;;;;3.08;2.30;;;20.70;99.90;;;-141.84;42.51;19403.31;5072451;28;20701;-56
2022/05/23 08:38:34;;;;;;;3.55;2.10;;;20.80;99.90;;;-141.84;42.06;19443.97;5072383;28;20197;-55
2022/05/23 08:41:18;;;;;;;3.67;2.58;;;20.90;99.90;;;-141.84;42.49;19429.75;5072407;28;20204;-55
2022/05/23 08:44:05;;;;;;;5.53;2.50;;;20.90;99.90;;;-141.84;41.91;19468.34;5067935;28;20237;-55
2022/05/23 08:46:46;;;;;;;3.58;2.33;;;21.00;99.90;;;-141.84;42.29;19419.59;5065981;28;20640;-56
2022/05/23 08:49:35;;;;;;;5.00;2.60;;;21.20;99.90;;;-141.84;41.76;19496.81;5070531;28;20292;-56
2022/05/23 08:52:14;;;;;;;2.95;2.20;;;21.30;99.90;;;-141.84;41.69;19476.47;5056826;28;20193;-55
2022/05/23 08:54:54;;;;;;;4.30;2.50;;;21.30;99.90;;;-141.84;42.03;19452.09;5053270;28;20201;-51
2022/05/23 08:57:35;;;;;;;3.60;2.40;;;21.40;99.90;;;-141.84;41.72;19462.25;5058807;28;20192;-54
2022/05/23 09:00:09;;;;;;;5.13;2.40;;;21.40;99.90;;;-141.84;42.44;19448.03;5071827;28;20633;-52
2022/05/23 09:02:45;;;;;;;4.60;2.50;;;21.40;99.90;;;-141.84;41.77;19523.22;5071750;28;20192;-55
2022/05/23 09:05:20;;;;;;;3.22;2.28;;;21.50;99.90;;;-141.84;41.52;19480.53;5072506;28;20189;-50
2022/05/23 09:08:14;;;;;;;4.18;2.60;;;21.50;99.90;;;-141.84;42.82;19439.91;5072291;28;20207;-51
2022/05/23 09:10:54;;;;;;;4.60;2.85;;;21.50;99.90;;;-141.84;42.68;19435.84;5072177;28;20180;-54
2022/05/23 09:13:27;;;;;;;3.03;2.10;;;21.50;99.90;;;-141.84;42.86;19456.16;5072270;28;20188;-55
2022/05/23 09:16:04;;;;;;;2.30;1.95;;;21.50;99.90;;;-141.84;42.42;19511.03;5071426;28;20663;-54
2022/05/23 09:18:43;;;;;;;2.22;2.00;;;21.70;99.90;;;-141.84;42.19;19472.41;5071520;28;20224;-53
2022/05/23 09:21:11;;;;;;;4.05;2.10;;;21.60;99.90;;;-141.84;42.38;19519.16;5071924;28;20193;-54
2022/05/23 09:23:47;;;;;;;5.28;2.42;;;21.70;99.90;;;-141.84;41.60;19567.94;5071850;28;20227;-52
2022/05/23 09:26:25;;;;;;;5.13;2.50;;;21.90;99.90;;;-141.84;40.98;19559.81;5071742;28;20275;-51
2022/05/23 09:28:54;;;;;;;3.50;2.17;;;22.00;99.90;;;-141.84;41.10;19582.16;5071387;28;20203;-54
2022/05/23 09:31:35;;;;;;;2.78;2.33;;;22.10;99.90;;;-141.84;40.76;19612.63;5071493;28;20703;-53
2022/05/23 09:34:04;;;;;;;2.80;2.40;;;22.10;99.90;;;-141.84;40.42;19598.41;5071781;28;20181;-55
2022/05/23 09:36:37;;;;;;;3.53;2.45;;;22.00;99.90;;;-141.84;41.33;19578.09;5071622;28;20717;-52
2022/05/23 09:39:08;;;;;;;4.57;2.20;;;22.00;99.90;;;-141.84;41.53;19569.97;5071689;28;20608;-53
2022/05/23 09:47:49;;;;;;;3.30;2.15;;;22.40;99.90;;;-141.84;40.72;19582.16;5071690;28;20181;-54
2022/05/23 09:50:41;;;;;;;4.38;2.47;;;22.40;99.90;;;-141.84;41.21;19576.06;5071551;28;20603;-53
2022/05/23 09:53:26;;;;;;;4.93;2.47;;;22.40;99.90;;;-141.84;41.44;19569.97;5068889;28;20197;-54
2022/05/23 09:56:24;;;;;;;4.05;2.35;;;22.30;99.90;;;-141.84;41.46;19553.72;5071638;28;20188;-53
2022/05/23 09:58:52;;;;;;;2.42;2.22;;;22.30;99.90;;;-141.84;40.93;19567.94;5071317;28;20209;-51
2022/05/23 10:01:28;;;;;;;2.80;2.30;;;22.30;99.90;;;-141.84;41.15;19541.50;5070995;28;20206;-50
2022/05/23 10:03:58;;;;;;;4.97;2.53;;;22.30;99.90;;;-141.84;41.26;19531.34;5071447;28;20204;-53
2022/05/23 10:06:37;;;;;;;4.13;2.40;;;22.20;99.90;;;-141.84;41.10;19549.63;5071682;28;20323;-54
2022/05/23 10:09:09;;;;;;;4.28;2.58;;;22.10;99.90;;;-141.84;41.90;19523.22;5071352;28;20181;-54
2022/05/23 10:11:39;;;;;;;4.07;2.40;;;22.00;99.90;;;-141.84;42.22;19466.31;5071463;28;20192;-53
2022/05/23 10:14:17;;;;;;;3.03;2.30;;;21.90;99.90;;;-141.84;42.71;19484.59;5071276;28;20234;-53
2022/05/23 10:16:50;;;;;;;3.60;2.13;;;21.70;99.90;;;-141.84;43.02;19395.19;5071462;28;20195;-51
2022/05/23 10:19:31;;;;;;;3.95;2.65;;;21.60;99.90;;;-141.84;43.14;19462.25;5070987;28;20225;-52
2022/05/23 10:22:13;;;;;;;2.78;2.30;;;21.50;99.90;;;-141.84;42.47;19415.50;5071404;28;20276;-54
2022/05/23 10:24:52;;;;;;;5.47;2.28;;;21.50;99.90;;;-141.84;43.23;19415.50;5071430;28;20209;-55
2022/05/23 10:27:38;;;;;;;2.40;2.20;;;21.50;99.90;;;-141.84;42.42;19460.22;5071300;28;20192;-52
2022/05/23 10:30:09;;;;;;;3.13;2.45;;;21.60;99.90;;;-141.84;41.93;19488.69;5070955;28;20200;-53
2022/05/23 10:36:32;;;;;;;4.22;2.30;;;21.60;99.90;;;-141.84;41.79;19474.44;5067389;28;20216;-52
2022/05/23 10:42:13;;;;;;;2.47;2.10;;;21.90;99.90;;;-141.84;40.69;19559.81;5062565;28;20295;-53
2022/05/23 10:45:03;;;;;;;6.50;2.50;;;22.10;99.90;;;-141.84;40.74;19594.34;5070870;28;20219;-52
2022/05/23 10:47:56;;;;;;;2.88;2.38;;;22.20;99.90;;;-141.84;40.21;19606.53;5071475;28;20291;-54
2022/05/23 10:50:34;;;;;;;3.08;2.25;;;22.40;99.90;;;-141.84;39.02;19667.50;5070993;28;20752;-54
2022/05/23 10:53:19;;;;;;;3.85;2.40;;;22.60;99.90;;;-141.84;38.96;19655.31;5070962;28;20185;-56
2022/05/23 10:55:59;;;;;;;2.35;2.15;;;22.60;99.90;;;-141.84;38.77;19710.19;5071182;28;20192;-56
2022/05/23 10:58:37;;;;;;;3.85;2.20;;;22.70;99.90;;;-141.84;38.72;19720.34;5070886;28;20193;-55
2022/05/23 11:01:29;;;;;;;3.42;2.38;;;22.70;99.90;;;-141.84;38.79;19746.78;5071256;28;20195;-56
2022/05/23 11:04:13;;;;;;;4.43;2.38;;;22.80;99.90;;;-141.84;37.91;19763.03;5071049;28;20690;-51
2022/05/23 11:07:09;;;;;;;2.50;2.30;;;22.80;99.90;;;-141.84;37.61;19736.59;5071136;28;20185;-54
2022/05/23 11:09:52;;;;;;;2.53;2.17;;;22.80;99.90;;;-141.84;37.91;19724.41;5071095;28;20575;-52
2022/05/23 11:12:32;;;;;;;3.85;2.30;;;22.80;99.90;;;-141.84;38.56;19746.78;5070834;28;20181;-54
2022/05/23 11:15:23;;;;;;;4.05;2.47;;;23.00;99.90;;;-141.84;37.75;19826.03;5070461;28;20549;-53